Sunningdale, United Kingdom
Current Conditions -  °F | °C
As of 12:20 PM on Monday 26 Jan 2015 (Local Time) from EGLF Reporting Station
Rain Showers Rain Showers  
Wind Chill: 50°   Ceiling: 1800
Heat Index: 50°   Visibility: 6mi
Dew Point: 43°   Wind: 13mph
Humidity: 76%   Direction: 330°NNW
Pressure: 30.21"   Gusts: NA
Location:  51.38°N, 0.62°W
Report Text: EGLF 261220Z 33011KT 310V010 9999 -SHRA BKN018 10/06 Q1023
Loading
Personal Weather Stations






























Interactive Weather Map New forecast layout! Learn more

10-Day Weather Forecast

Advertisements
Track Severe Weather on mobile